MDT3 LSGG-BKPR
Flight info
| Callsign | MDT3 |
|---|---|
| Flight time | 1h 57m |
| Altitude | 39000 |
| Route | MEDAM DCT NITAM DCT MOGBO DCT ASTIG DCT RIPDU DCT LURUT DCT IBENI DCT TAZ DCT RINAV DCT ARBER ARBER1D |
| Aircraft | CL60/M-SBDE1E2E3FGHIJ1J4J5J7M3RWXYZ/LB1V1D1 |
Departure
| Time | 2026-04-24 17:04 |
|---|---|
| Airport | Geneva International Airport (LSGG) |
Arrival
| Time | 2026-04-24 19:02 |
|---|---|
| Airport | Priština Adem Jashari International Airport (BKPR) |
| Time | Latitude | Longitude | Altitude | Speed | Heading |
|---|---|---|---|---|---|
| 2026-04-24 16:06 | 46.23655 | 6.09965 | 1392 ft | 0 kts | 137° |
| 2026-04-24 16:57 | 46.23654 | 6.09966 | 1392 ft | 1 kts | 137° |
| 2026-04-24 16:57 | 46.23637 | 6.09980 | 1392 ft | 4 kts | 202° |
| 2026-04-24 16:58 | 46.23605 | 6.09944 | 1393 ft | 6 kts | 228° |
| 2026-04-24 16:58 | 46.23571 | 6.09892 | 1395 ft | 7 kts | 226° |
| 2026-04-24 16:58 | 46.23532 | 6.09834 | 1397 ft | 8 kts | 224° |
| 2026-04-24 16:58 | 46.23502 | 6.09842 | 1397 ft | 7 kts | 135° |
| 2026-04-24 16:59 | 46.23444 | 6.09924 | 1393 ft | 9 kts | 136° |
| 2026-04-24 16:59 | 46.23397 | 6.09958 | 1391 ft | 8 kts | 219° |
| 2026-04-24 16:59 | 46.23363 | 6.09984 | 1389 ft | 0 kts | 133° |
| 2026-04-24 17:00 | 46.23352 | 6.10001 | 1388 ft | 2 kts | 136° |
| 2026-04-24 17:00 | 46.23346 | 6.10008 | 1388 ft | 0 kts | 134° |
| 2026-04-24 17:02 | 46.23341 | 6.10028 | 1388 ft | 5 kts | 96° |
| 2026-04-24 17:02 | 46.23319 | 6.10102 | 1386 ft | 11 kts | 138° |
| 2026-04-24 17:02 | 46.23309 | 6.10166 | 1385 ft | 0 kts | 43° |
| 2026-04-24 17:03 | 46.23312 | 6.10170 | 1385 ft | 10 kts | 43° |
| 2026-04-24 17:03 | 46.23594 | 6.10585 | 1380 ft | 99 kts | 45° |
| 2026-04-24 17:04 | 46.24240 | 6.11533 | 1382 ft | 159 kts | 46° |
| 2026-04-24 17:04 | 46.25850 | 6.13861 | 2672 ft | 169 kts | 44° |
| 2026-04-24 17:04 | 46.26689 | 6.15024 | 3491 ft | 168 kts | 44° |
| 2026-04-24 17:05 | 46.27493 | 6.16192 | 4283 ft | 168 kts | 45° |
| 2026-04-24 17:05 | 46.28373 | 6.17500 | 4569 ft | 207 kts | 45° |
| 2026-04-24 17:05 | 46.30701 | 6.20974 | 5491 ft | 260 kts | 45° |
| 2026-04-24 17:06 | 46.31968 | 6.22870 | 6337 ft | 268 kts | 45° |
| 2026-04-24 17:06 | 46.34590 | 6.26801 | 8059 ft | 278 kts | 46° |
| 2026-04-24 17:06 | 46.35855 | 6.28943 | 8785 ft | 285 kts | 60° |
| 2026-04-24 17:07 | 46.36329 | 6.30714 | 9048 ft | 290 kts | 81° |
| 2026-04-24 17:07 | 46.35785 | 6.34478 | 9845 ft | 296 kts | 125° |
| 2026-04-24 17:07 | 46.32069 | 6.37051 | 10910 ft | 337 kts | 184° |
| 2026-04-24 17:08 | 46.27454 | 6.35001 | 12749 ft | 361 kts | 198° |
| 2026-04-24 17:08 | 46.25079 | 6.33811 | 13859 ft | 364 kts | 198° |
| 2026-04-24 17:08 | 46.22674 | 6.32635 | 14679 ft | 373 kts | 197° |
| 2026-04-24 17:09 | 46.17628 | 6.30783 | 16814 ft | 375 kts | 185° |
| 2026-04-24 17:09 | 46.12389 | 6.30395 | 18675 ft | 381 kts | 181° |
| 2026-04-24 17:10 | 46.09736 | 6.30237 | 19539 ft | 385 kts | 181° |
| 2026-04-24 17:10 | 46.02058 | 6.33241 | 21790 ft | 398 kts | 150° |
| 2026-04-24 17:11 | 45.94764 | 6.39184 | 23994 ft | 408 kts | 150° |
| 2026-04-24 17:12 | 45.82131 | 6.49425 | 27388 ft | 419 kts | 150° |
| 2026-04-24 18:54 | 42.29297 | 21.27067 | 8652 ft | 266 kts | 259° |
| 2026-04-24 18:55 | 42.29825 | 21.22355 | 7805 ft | 259 kts | 304° |
| 2026-04-24 18:55 | 42.30929 | 21.20494 | 7387 ft | 248 kts | 314° |
| 2026-04-24 18:55 | 42.32037 | 21.18802 | 7116 ft | 234 kts | 313° |
| 2026-04-24 18:56 | 42.33091 | 21.17179 | 6726 ft | 224 kts | 313° |
| 2026-04-24 18:56 | 42.34098 | 21.15629 | 6330 ft | 217 kts | 313° |
| 2026-04-24 18:56 | 42.35094 | 21.14099 | 5892 ft | 213 kts | 313° |
| 2026-04-24 18:56 | 42.36051 | 21.12625 | 5614 ft | 206 kts | 313° |
| 2026-04-24 18:57 | 42.36755 | 21.10941 | 5397 ft | 213 kts | 284° |
| 2026-04-24 18:57 | 42.36993 | 21.08946 | 5193 ft | 213 kts | 288° |
| 2026-04-24 18:57 | 42.37798 | 21.07347 | 4989 ft | 209 kts | 321° |
| 2026-04-24 18:57 | 42.38968 | 21.06144 | 4795 ft | 209 kts | 327° |
| 2026-04-24 18:58 | 42.40245 | 21.05275 | 4626 ft | 207 kts | 341° |
| 2026-04-24 18:58 | 42.41666 | 21.04975 | 4475 ft | 204 kts | 358° |
| 2026-04-24 18:58 | 42.43069 | 21.04958 | 4305 ft | 198 kts | 359° |
| 2026-04-24 18:58 | 42.44429 | 21.04915 | 4133 ft | 194 kts | 358° |
| 2026-04-24 18:59 | 42.45764 | 21.04791 | 3970 ft | 194 kts | 356° |
| 2026-04-24 18:59 | 42.47080 | 21.04665 | 3851 ft | 178 kts | 356° |
| 2026-04-24 18:59 | 42.48290 | 21.04530 | 3581 ft | 176 kts | 355° |
| 2026-04-24 18:59 | 42.49464 | 21.04401 | 3338 ft | 150 kts | 355° |
| 2026-04-24 19:00 | 42.50458 | 21.04290 | 2923 ft | 140 kts | 355° |
| 2026-04-24 19:00 | 42.51378 | 21.04197 | 2584 ft | 125 kts | 356° |
| 2026-04-24 19:00 | 42.52223 | 21.04112 | 2382 ft | 120 kts | 355° |
| 2026-04-24 19:00 | 42.53058 | 21.04025 | 2313 ft | 119 kts | 355° |
| 2026-04-24 19:01 | 42.53899 | 21.03941 | 2212 ft | 121 kts | 355° |
| 2026-04-24 19:01 | 42.54748 | 21.03849 | 2051 ft | 121 kts | 355° |
| 2026-04-24 19:01 | 42.55592 | 21.03763 | 1876 ft | 120 kts | 355° |
| 2026-04-24 19:01 | 42.56395 | 21.03679 | 1796 ft | 105 kts | 354° |
| 2026-04-24 19:02 | 42.56839 | 21.03631 | 1790 ft | 87 kts | 357° |
| 2026-04-24 19:02 | 42.57426 | 21.03575 | 1788 ft | 34 kts | 356° |
| 2026-04-24 19:02 | 42.57687 | 21.03546 | 1790 ft | 35 kts | 349° |
| 2026-04-24 19:02 | 42.57856 | 21.03468 | 1793 ft | 23 kts | 329° |
| 2026-04-24 19:03 | 42.57957 | 21.03380 | 1795 ft | 11 kts | 326° |
| 2026-04-24 19:03 | 42.58021 | 21.03321 | 1796 ft | 6 kts | 326° |
| 2026-04-24 19:03 | 42.58024 | 21.03318 | 1796 ft | 0 kts | 326° |
| 2026-04-24 19:04 | 42.58035 | 21.03309 | 1796 ft | 5 kts | 332° |
| 2026-04-24 19:04 | 42.58096 | 21.03281 | 1797 ft | 12 kts | 343° |
| 2026-04-24 19:04 | 42.58183 | 21.03254 | 1798 ft | 10 kts | 355° |
| 2026-04-24 19:04 | 42.58267 | 21.03244 | 1800 ft | 14 kts | 354° |
| 2026-04-24 19:05 | 42.58347 | 21.03235 | 1801 ft | 8 kts | 355° |
| 2026-04-24 19:05 | 42.58404 | 21.03177 | 1802 ft | 12 kts | 310° |
| 2026-04-24 19:05 | 42.58465 | 21.03104 | 1804 ft | 11 kts | 313° |
| 2026-04-24 19:05 | 42.58478 | 21.03082 | 1804 ft | 0 kts | 307° |